Wafrah — 9KEG — position and weather

sailwx.info

Track history (hours):
 
Tides and Currents Weather Stations Pressure Air Temp Water Temp Dewpoint Dewpoint Depression Visibility Wind Speed Wind Dir Waves Ship Positions

Wafrah

Last reported at 2018-Jan-20 18:28 UTC. Time now 2018-Jan-21 03:15 UTC.
Position N 43°11' E 005°01'.

Length 250 m; draft 8.5 m.

Type: Ship. MMSI: 447162000.

Date/timePositionNaut miles runAvg speedWind from/ knotsBaromVisibWave heightAir tempDewpointWater temp
2018-Jan-20 18:28N 43°11' E 005°01'4 9.7
2018-Jan-20 18:00N 43°15' E 004°60'3 6.2
2018-Jan-20 17:30N 43°18' E 004°59'3 6.3
2018-Jan-20 17:00N 43°21' E 004°58'3 6.2
2018-Jan-20 16:30N 43°24' E 004°55'2 2.9
2018-Jan-20 15:59N 43°24' E 004°53'0 0.2
2018-Jan-20 15:31N 43°24' E 004°53'0 0.0
2018-Jan-19 12:31N 43°24' E 004°53'0 0.1
2018-Jan-19 12:28N 43°24' E 004°53'0 0.0
2018-Jan-19 11:58N 43°24' E 004°53'0 0.0
2018-Jan-19 11:28N 43°24' E 004°53'1 3.0
2018-Jan-19 11:00N 43°24' E 004°55'3 6.8
2018-Jan-19 10:30N 43°22' E 004°59'0 0.6
2018-Jan-19 10:00N 43°21' E 004°59'0 0.2
2018-Jan-19 09:30N 43°21' E 004°59'0 0.0
2018-Jan-19 09:00N 43°21' E 004°59'0 0.1
2018-Jan-19 08:30N 43°21' E 004°59'0 0.1
2018-Jan-19 08:00N 43°21' E 004°59'0 0.0
2018-Jan-19 07:30N 43°21' E 004°59'0 0.0
2018-Jan-19 07:00N 43°21' E 004°59'0 0.1
2018-Jan-19 06:30N 43°21' E 004°59'0 0.0
2018-Jan-19 06:00N 43°21' E 004°59'0 0.1
2018-Jan-19 05:30N 43°21' E 004°59'0 0.3
2018-Jan-19 05:00N 43°21' E 004°59'1 2.0
2018-Jan-19 04:30N 43°20' E 004°59'2 4.5
2018-Jan-19 04:00N 43°18' E 004°60'4 7.3
2018-Jan-19 03:30N 43°15' E 005°02'4 8.1
2018-Jan-19 03:00N 43°11' E 005°04'  
2018-Jan-12 14:54N 35°57' E 014°51'0 0.1
2018-Jan-12 14:30N 35°57' E 014°51'0 0.1
2018-Jan-12 14:00N 35°57' E 014°51'0 0.0
2018-Jan-12 13:30N 35°57' E 014°51'0 0.1
2018-Jan-12 13:00N 35°57' E 014°51'0 0.1
2018-Jan-12 12:30N 35°57' E 014°51'0 0.1
2018-Jan-12 12:00N 35°57' E 014°51'0 0.0
2018-Jan-12 11:30N 35°57' E 014°51'0 0.0
2018-Jan-12 11:00N 35°57' E 014°51'0 0.1
2018-Jan-12 10:27N 35°57' E 014°51'0 0.1
2018-Jan-12 10:00N 35°57' E 014°51'0 0.1
2018-Jan-12 09:18N 35°57' E 014°51'0 0.1
2018-Jan-12 08:57N 35°57' E 014°51'0 0.0
2018-Jan-12 08:30N 35°57' E 014°51'0 0.1
2018-Jan-12 08:00N 35°57' E 014°51'0 0.1
2018-Jan-12 07:30N 35°57' E 014°51'0 0.0
2018-Jan-12 07:00N 35°57' E 014°51'0 0.1
2018-Jan-12 06:30N 35°57' E 014°51'0 0.0
2018-Jan-12 06:00N 35°57' E 014°51'0 0.0
2018-Jan-12 05:30N 35°57' E 014°51'0 0.0
2018-Jan-12 05:00N 35°57' E 014°51'0 0.0
2018-Jan-12 04:30N 35°57' E 014°51'0 0.0
2018-Jan-12 04:00N 35°57' E 014°51'0 0.0
2018-Jan-12 03:30N 35°57' E 014°51'0 0.0
2018-Jan-12 03:00N 35°57' E 014°51'0 0.0
2018-Jan-12 02:30N 35°57' E 014°51'0 0.0
2018-Jan-12 02:00N 35°57' E 014°51'0 0.1
2018-Jan-12 01:30N 35°57' E 014°51'0 0.0
2018-Jan-12 01:00N 35°57' E 014°51'0 0.0
2018-Jan-12 00:30N 35°57' E 014°51'0 0.2
2018-Jan-11 23:51N 35°57' E 014°51'0 0.1
2018-Jan-11 23:30N 35°57' E 014°51'0 0.1
2018-Jan-11 23:00N 35°57' E 014°51'0 0.0
2018-Jan-11 22:30N 35°57' E 014°51'0 0.0
2018-Jan-11 22:00N 35°57' E 014°51'0 0.1
2018-Jan-11 21:30N 35°57' E 014°51'0 0.1
2018-Jan-11 21:00N 35°57' E 014°51'0 0.0
2018-Jan-11 20:30N 35°57' E 014°51'0 0.0
2018-Jan-11 20:00N 35°57' E 014°51'0 0.1
2018-Jan-11 19:30N 35°57' E 014°51'0 0.1
2018-Jan-11 19:00N 35°57' E 014°51'0 0.3
2018-Jan-11 18:24N 35°57' E 014°51'0 0.0
2018-Jan-11 17:54N 35°57' E 014°51'0 0.0
2018-Jan-11 17:30N 35°57' E 014°51'0 0.0
2018-Jan-11 17:00N 35°57' E 014°51'0 0.0
2018-Jan-11 16:24N 35°57' E 014°51'0 0.0
2018-Jan-11 15:57N 35°57' E 014°51'0 0.0
2018-Jan-11 15:27N 35°57' E 014°51'0 0.0
2018-Jan-11 14:12N 35°57' E 014°51'0 0.1
2018-Jan-11 13:57N 35°57' E 014°51'0 0.1
2018-Jan-11 13:30N 35°57' E 014°51'0 0.0
2018-Jan-11 12:54N 35°57' E 014°51'0 0.0
2018-Jan-11 12:27N 35°57' E 014°51'0 0.0
2018-Jan-11 12:00N 35°57' E 014°51'0 0.0
2018-Jan-11 11:27N 35°57' E 014°51'0 0.0
2018-Jan-11 11:00N 35°57' E 014°51'0 0.0
2018-Jan-11 10:30N 35°57' E 014°51'0 0.0
2018-Jan-11 09:57N 35°57' E 014°51'0 0.1
2018-Jan-11 09:30N 35°57' E 014°51'0 0.0
2018-Jan-11 09:00N 35°57' E 014°51'0 0.0
2018-Jan-11 08:27N 35°57' E 014°51'0 0.1
2018-Jan-11 08:00N 35°57' E 014°51'0 0.1
2018-Jan-11 07:30N 35°57' E 014°51'0 0.0
2018-Jan-11 07:00N 35°57' E 014°51'0 0.0
2018-Jan-11 06:30N 35°57' E 014°51'0 0.0
2018-Jan-11 06:00N 35°57' E 014°51'0 0.0
2018-Jan-11 05:30N 35°57' E 014°51'0 0.0
2018-Jan-11 04:57N 35°57' E 014°51'0 0.1
2018-Jan-11 04:21N 35°57' E 014°51'0 0.0
2018-Jan-11 03:57N 35°57' E 014°51'0 0.0
2018-Jan-11 03:30N 35°57' E 014°51'0 0.0
2018-Jan-11 02:42N 35°57' E 014°51'0 0.2
2018-Jan-11 02:27N 35°57' E 014°51'0 0.0
2018-Jan-11 01:57N 35°57' E 014°51'0 0.1
2018-Jan-11 01:24N 35°57' E 014°51'0 0.0
2018-Jan-11 00:57N 35°57' E 014°51'0 0.0
2018-Jan-11 00:27N 35°57' E 014°51'0 0.0
2018-Jan-10 23:57N 35°57' E 014°51'0 0.1
2018-Jan-10 23:27N 35°57' E 014°51'0 0.0
2018-Jan-10 22:57N 35°57' E 014°51'0 0.0
2018-Jan-10 22:30N 35°57' E 014°51'0 0.0
2018-Jan-10 21:57N 35°57' E 014°51'0 0.0
2018-Jan-10 21:27N 35°57' E 014°51'0 0.1
2018-Jan-10 21:00N 35°57' E 014°51'0 0.2
2018-Jan-10 20:30N 35°57' E 014°51'0 0.1
2018-Jan-10 19:57N 35°57' E 014°51'0 0.0
2018-Jan-10 19:18N 35°57' E 014°51'0 0.0
2018-Jan-10 19:00N 35°57' E 014°51'  
Track history (hours):
 
Tides and Currents Weather Stations Pressure Air Temp Water Temp Dewpoint Dewpoint Depression Visibility Wind Speed Wind Dir Waves Ship Positions

Wafrah

Last reported at 2018-Jan-20 18:28 UTC. Time now 2018-Jan-21 03:15 UTC.
Position N 43°11' E 005°01'.

Length 250 m; draft 8.5 m.

Type: Ship. MMSI: 447162000.

Date/timePositionNaut miles runAvg speedWind from/ knotsBaromVisibWave heightAir tempDewpointWater temp
2018-Jan-20 18:28N 43°11' E 005°01'4 9.7
2018-Jan-20 18:00N 43°15' E 004°60'3 6.2
2018-Jan-20 17:30N 43°18' E 004°59'3 6.3
2018-Jan-20 17:00N 43°21' E 004°58'3 6.2
2018-Jan-20 16:30N 43°24' E 004°55'2 2.9
2018-Jan-20 15:59N 43°24' E 004°53'0 0.2
2018-Jan-20 15:31N 43°24' E 004°53'0 0.0
2018-Jan-19 12:31N 43°24' E 004°53'0 0.1
2018-Jan-19 12:28N 43°24' E 004°53'0 0.0
2018-Jan-19 11:58N 43°24' E 004°53'0 0.0
2018-Jan-19 11:28N 43°24' E 004°53'1 3.0
2018-Jan-19 11:00N 43°24' E 004°55'3 6.8
2018-Jan-19 10:30N 43°22' E 004°59'0 0.6
2018-Jan-19 10:00N 43°21' E 004°59'0 0.2
2018-Jan-19 09:30N 43°21' E 004°59'0 0.0
2018-Jan-19 09:00N 43°21' E 004°59'0 0.1
2018-Jan-19 08:30N 43°21' E 004°59'0 0.1
2018-Jan-19 08:00N 43°21' E 004°59'0 0.0
2018-Jan-19 07:30N 43°21' E 004°59'0 0.0
2018-Jan-19 07:00N 43°21' E 004°59'0 0.1
2018-Jan-19 06:30N 43°21' E 004°59'0 0.0
2018-Jan-19 06:00N 43°21' E 004°59'0 0.1
2018-Jan-19 05:30N 43°21' E 004°59'0 0.3
2018-Jan-19 05:00N 43°21' E 004°59'1 2.0
2018-Jan-19 04:30N 43°20' E 004°59'2 4.5
2018-Jan-19 04:00N 43°18' E 004°60'4 7.3
2018-Jan-19 03:30N 43°15' E 005°02'4 8.1
2018-Jan-19 03:00N 43°11' E 005°04'  
2018-Jan-12 14:54N 35°57' E 014°51'0 0.1
2018-Jan-12 14:30N 35°57' E 014°51'0 0.1
2018-Jan-12 14:00N 35°57' E 014°51'0 0.0
2018-Jan-12 13:30N 35°57' E 014°51'0 0.1
2018-Jan-12 13:00N 35°57' E 014°51'0 0.1
2018-Jan-12 12:30N 35°57' E 014°51'0 0.1
2018-Jan-12 12:00N 35°57' E 014°51'0 0.0
2018-Jan-12 11:30N 35°57' E 014°51'0 0.0
2018-Jan-12 11:00N 35°57' E 014°51'0 0.1
2018-Jan-12 10:27N 35°57' E 014°51'0 0.1
2018-Jan-12 10:00N 35°57' E 014°51'0 0.1
2018-Jan-12 09:18N 35°57' E 014°51'0 0.1
2018-Jan-12 08:57N 35°57' E 014°51'0 0.0
2018-Jan-12 08:30N 35°57' E 014°51'0 0.1
2018-Jan-12 08:00N 35°57' E 014°51'0 0.1
2018-Jan-12 07:30N 35°57' E 014°51'0 0.0
2018-Jan-12 07:00N 35°57' E 014°51'0 0.1
2018-Jan-12 06:30N 35°57' E 014°51'0 0.0
2018-Jan-12 06:00N 35°57' E 014°51'0 0.0
2018-Jan-12 05:30N 35°57' E 014°51'0 0.0
2018-Jan-12 05:00N 35°57' E 014°51'0 0.0
2018-Jan-12 04:30N 35°57' E 014°51'0 0.0
2018-Jan-12 04:00N 35°57' E 014°51'0 0.0
2018-Jan-12 03:30N 35°57' E 014°51'0 0.0
2018-Jan-12 03:00N 35°57' E 014°51'0 0.0
2018-Jan-12 02:30N 35°57' E 014°51'0 0.0
2018-Jan-12 02:00N 35°57' E 014°51'0 0.1
2018-Jan-12 01:30N 35°57' E 014°51'0 0.0
2018-Jan-12 01:00N 35°57' E 014°51'0 0.0
2018-Jan-12 00:30N 35°57' E 014°51'0 0.2
2018-Jan-11 23:51N 35°57' E 014°51'0 0.1
2018-Jan-11 23:30N 35°57' E 014°51'0 0.1
2018-Jan-11 23:00N 35°57' E 014°51'0 0.0
2018-Jan-11 22:30N 35°57' E 014°51'0 0.0
2018-Jan-11 22:00N 35°57' E 014°51'0 0.1
2018-Jan-11 21:30N 35°57' E 014°51'0 0.1
2018-Jan-11 21:00N 35°57' E 014°51'0 0.0
2018-Jan-11 20:30N 35°57' E 014°51'0 0.0
2018-Jan-11 20:00N 35°57' E 014°51'0 0.1
2018-Jan-11 19:30N 35°57' E 014°51'0 0.1
2018-Jan-11 19:00N 35°57' E 014°51'0 0.3
2018-Jan-11 18:24N 35°57' E 014°51'0 0.0
2018-Jan-11 17:54N 35°57' E 014°51'0 0.0
2018-Jan-11 17:30N 35°57' E 014°51'0 0.0
2018-Jan-11 17:00N 35°57' E 014°51'0 0.0
2018-Jan-11 16:24N 35°57' E 014°51'0 0.0
2018-Jan-11 15:57N 35°57' E 014°51'0 0.0
2018-Jan-11 15:27N 35°57' E 014°51'0 0.0
2018-Jan-11 14:12N 35°57' E 014°51'0 0.1
2018-Jan-11 13:57N 35°57' E 014°51'0 0.1
2018-Jan-11 13:30N 35°57' E 014°51'0 0.0
2018-Jan-11 12:54N 35°57' E 014°51'0 0.0
2018-Jan-11 12:27N 35°57' E 014°51'0 0.0
2018-Jan-11 12:00N 35°57' E 014°51'0 0.0
2018-Jan-11 11:27N 35°57' E 014°51'0 0.0
2018-Jan-11 11:00N 35°57' E 014°51'0 0.0
2018-Jan-11 10:30N 35°57' E 014°51'0 0.0
2018-Jan-11 09:57N 35°57' E 014°51'0 0.1
2018-Jan-11 09:30N 35°57' E 014°51'0 0.0
2018-Jan-11 09:00N 35°57' E 014°51'0 0.0
2018-Jan-11 08:27N 35°57' E 014°51'0 0.1
2018-Jan-11 08:00N 35°57' E 014°51'0 0.1
2018-Jan-11 07:30N 35°57' E 014°51'0 0.0
2018-Jan-11 07:00N 35°57' E 014°51'0 0.0
2018-Jan-11 06:30N 35°57' E 014°51'0 0.0
2018-Jan-11 06:00N 35°57' E 014°51'0 0.0
2018-Jan-11 05:30N 35°57' E 014°51'0 0.0
2018-Jan-11 04:57N 35°57' E 014°51'0 0.1
2018-Jan-11 04:21N 35°57' E 014°51'0 0.0
2018-Jan-11 03:57N 35°57' E 014°51'0 0.0
2018-Jan-11 03:30N 35°57' E 014°51'0 0.0
2018-Jan-11 02:42N 35°57' E 014°51'0 0.2
2018-Jan-11 02:27N 35°57' E 014°51'0 0.0
2018-Jan-11 01:57N 35°57' E 014°51'0 0.1
2018-Jan-11 01:24N 35°57' E 014°51'0 0.0
2018-Jan-11 00:57N 35°57' E 014°51'0 0.0
2018-Jan-11 00:27N 35°57' E 014°51'0 0.0
2018-Jan-10 23:57N 35°57' E 014°51'0 0.1
2018-Jan-10 23:27N 35°57' E 014°51'0 0.0
2018-Jan-10 22:57N 35°57' E 014°51'0 0.0
2018-Jan-10 22:30N 35°57' E 014°51'0 0.0
2018-Jan-10 21:57N 35°57' E 014°51'0 0.0
2018-Jan-10 21:27N 35°57' E 014°51'0 0.1
2018-Jan-10 21:00N 35°57' E 014°51'0 0.2
2018-Jan-10 20:30N 35°57' E 014°51'0 0.1
2018-Jan-10 19:57N 35°57' E 014°51'0 0.0
2018-Jan-10 19:18N 35°57' E 014°51'0 0.0
2018-Jan-10 19:00N 35°57' E 014°51'  

Dump ship's entire track history